Time,TemperatureF,DewpointF,PressureIn,WindDirection,WindDirectionDegrees,WindSpeedMPH,WindSpeedGustMPH,Humidity,HourlyPrecipIn,Conditions,Clouds,dailyrainin,SoftwareType,DateUTC
2013-06-17 00:02:00,62.0,52.0,30.07,SW,231,4.0,-999.0,70,-99.99,,,-99.99,,2013-06-17 06:02:00,
2013-06-17 00:12:00,60.0,53.0,30.07,SSW,203,5.0,-999.0,76,-99.99,,,-99.99,,2013-06-17 06:12:00,
2013-06-17 00:22:00,60.0,53.0,30.07,SSW,203,5.0,-999.0,76,-99.99,,,-99.99,,2013-06-17 06:22:00,
2013-06-17 00:33:00,60.0,52.0,30.07,SW,230,5.0,-999.0,76,-99.99,,,-99.99,,2013-06-17 06:33:00,
2013-06-17 00:43:00,62.0,52.0,30.06,SW,224,3.0,-999.0,68,-99.99,,,-99.99,,2013-06-17 06:43:00,
2013-06-17 00:53:00,63.0,52.0,30.06,North,0,0.0,-999.0,66,-99.99,,,-99.99,,2013-06-17 06:53:00,
2013-06-17 01:02:00,61.0,53.0,30.06,North,-999,0.0,-999.0,75,-99.99,,,-99.99,,2013-06-17 07:02:00,
2013-06-17 01:12:00,60.0,52.0,30.04,SW,224,3.0,-999.0,76,-99.99,,,-99.99,,2013-06-17 07:12:00,
2013-06-17 01:22:00,60.0,52.0,30.04,SW,224,3.0,-999.0,76,-99.99,,,-99.99,,2013-06-17 07:22:00,
2013-06-17 01:33:00,58.0,52.0,30.08,NNW,328,9.0,-999.0,81,-99.99,,,-99.99,,2013-06-17 07:33:00,
2013-06-17 01:43:00,58.0,52.0,30.07,West,259,6.0,-999.0,81,-99.99,,,-99.99,,2013-06-17 07:43:00,
2013-06-17 01:52:00,57.0,52.0,30.08,NW,312,6.0,-999.0,83,-99.99,,,-99.99,,2013-06-17 07:52:00,
2013-06-17 02:01:00,56.0,52.0,30.06,NW,315,7.0,-999.0,84,-99.99,,,-99.99,,2013-06-17 08:01:00,
2013-06-17 02:11:00,56.0,52.0,30.09,WNW,292,5.0,-999.0,86,-99.99,,,-99.99,,2013-06-17 08:11:00,
2013-06-17 02:22:00,57.0,51.0,30.08,NW,304,7.0,-999.0,82,-99.99,,,-99.99,,2013-06-17 08:22:00,
2013-06-17 02:33:00,57.0,51.0,30.08,West,261,6.0,-999.0,81,-99.99,,,-99.99,,2013-06-17 08:33:00,
2013-06-17 02:43:00,54.0,52.0,30.07,SW,231,7.0,-999.0,90,-99.99,,,-99.99,,2013-06-17 08:43:00,
2013-06-17 02:53:00,56.0,51.0,30.08,West,271,8.0,-999.0,85,-99.99,,,-99.99,,2013-06-17 08:53:00,
2013-06-17 03:02:00,55.0,51.0,30.06,WSW,257,7.0,-999.0,88,-99.99,,,-99.99,,2013-06-17 09:02:00,
2013-06-17 03:11:00,55.0,51.0,30.08,WNW,290,7.0,-999.0,87,-99.99,,,-99.99,,2013-06-17 09:11:00,
2013-06-17 03:22:00,55.0,51.0,30.08,WNW,290,7.0,-999.0,87,-99.99,,,-99.99,,2013-06-17 09:22:00,
2013-06-17 03:34:00,56.0,51.0,30.08,WNW,289,7.0,-999.0,84,-99.99,,,-99.99,,2013-06-17 09:34:00,
2013-06-17 03:43:00,55.0,51.0,30.09,West,281,6.0,-999.0,88,-99.99,,,-99.99,,2013-06-17 09:43:00,
2013-06-17 03:52:00,56.0,51.0,30.07,NW,325,5.0,-999.0,83,-99.99,,,-99.99,,2013-06-17 09:52:00,
2013-06-17 04:02:00,56.0,51.0,30.07,NW,312,7.0,-999.0,83,-99.99,,,-99.99,,2013-06-17 10:02:00,
2013-06-17 04:12:00,56.0,52.0,30.06,NNW,341,8.0,-999.0,84,-99.99,,,-99.99,,2013-06-17 10:12:00,
2013-06-17 04:22:00,55.0,51.0,30.06,North,5,8.0,-999.0,86,-99.99,,,-99.99,,2013-06-17 10:22:00,
2013-06-17 04:33:00,56.0,52.0,30.07,North,-999,5.0,-999.0,86,-99.99,,,-99.99,,2013-06-17 10:33:00,
2013-06-17 04:43:00,56.0,51.0,30.08,WNW,300,5.0,-999.0,82,-99.99,,,-99.99,,2013-06-17 10:43:00,
2013-06-17 04:53:00,55.0,52.0,30.09,West,268,4.0,-999.0,90,-99.99,,,-99.99,,2013-06-17 10:53:00,
2013-06-17 05:02:00,55.0,52.0,30.09,WSW,238,6.0,-999.0,89,-99.99,,,-99.99,,2013-06-17 11:02:00,
2013-06-17 05:12:00,55.0,52.0,30.09,SW,227,8.0,-999.0,90,-99.99,,,-99.99,,2013-06-17 11:12:00,
2013-06-17 05:23:00,55.0,52.0,30.09,SW,227,8.0,-999.0,90,-99.99,,,-99.99,,2013-06-17 11:23:00,
2013-06-17 05:33:00,56.0,51.0,30.09,WSW,249,6.0,-999.0,83,-99.99,,,-99.99,,2013-06-17 11:33:00,
2013-06-17 05:43:00,57.0,51.0,30.10,WSW,245,5.0,-999.0,81,-99.99,,,-99.99,,2013-06-17 11:43:00,
2013-06-17 05:53:00,57.0,51.0,30.10,WNW,284,5.0,-999.0,80,-99.99,,,-99.99,,2013-06-17 11:53:00,
2013-06-17 06:02:00,57.0,51.0,30.10,West,260,5.0,-999.0,80,-99.99,,,-99.99,,2013-06-17 12:02:00,
2013-06-17 06:12:00,57.0,52.0,30.11,WSW,250,5.0,-999.0,82,-99.99,,,-99.99,,2013-06-17 12:12:00,
2013-06-17 06:22:00,57.0,51.0,30.10,WNW,303,4.0,-999.0,80,-99.99,,,-99.99,,2013-06-17 12:22:00,
2013-06-17 06:33:00,58.0,50.0,30.09,NW,317,5.0,-999.0,75,-99.99,,,-99.99,,2013-06-17 12:33:00,
2013-06-17 06:43:00,58.0,51.0,30.11,NW,323,7.0,-999.0,79,-99.99,,,-99.99,,2013-06-17 12:43:00,
2013-06-17 06:53:00,58.0,50.0,30.11,NNW,340,7.0,-999.0,75,-99.99,,,-99.99,,2013-06-17 12:53:00,
2013-06-17 07:01:00,58.0,51.0,30.11,NNW,330,7.0,-999.0,77,-99.99,,,-99.99,,2013-06-17 13:01:00,
2013-06-17 07:12:00,59.0,51.0,30.09,NNW,343,6.0,-999.0,76,-99.99,,,-99.99,,2013-06-17 13:12:00,
2013-06-17 07:22:00,59.0,51.0,30.09,NNW,343,6.0,-999.0,76,-99.99,,,-99.99,,2013-06-17 13:22:00,
2013-06-17 07:32:00,61.0,51.0,30.10,North,2,5.0,-999.0,70,-99.99,,,-99.99,,2013-06-17 13:32:00,
2013-06-17 07:43:00,61.0,52.0,30.09,NNE,20,5.0,-999.0,71,-99.99,,,-99.99,,2013-06-17 13:43:00,
2013-06-17 07:52:00,61.0,53.0,30.11,NNE,22,6.0,-999.0,74,-99.99,,,-99.99,,2013-06-17 13:52:00,
2013-06-17 08:02:00,61.0,52.0,30.10,North,8,10.0,-999.0,71,-99.99,,,-99.99,,2013-06-17 14:02:00,
2013-06-17 08:12:00,61.0,52.0,30.10,North,8,10.0,-999.0,71,-99.99,,,-99.99,,2013-06-17 14:12:00,
2013-06-17 08:22:00,61.0,52.0,30.10,North,8,10.0,-999.0,71,-99.99,,,-99.99,,2013-06-17 14:22:00,
2013-06-17 08:34:00,60.0,53.0,30.11,NE,34,7.0,-999.0,79,-99.99,,,-99.99,,2013-06-17 14:34:00,
2013-06-17 08:43:00,59.0,53.0,30.13,NE,40,9.0,-999.0,79,-99.99,,,-99.99,,2013-06-17 14:43:00,
2013-06-17 08:53:00,60.0,52.0,30.14,NNE,27,9.0,-999.0,75,-99.99,,,-99.99,,2013-06-17 14:53:00,
2013-06-17 09:01:00,60.0,52.0,30.12,NE,38,8.0,-999.0,75,-99.99,,,-99.99,,2013-06-17 15:01:00,
2013-06-17 09:12:00,60.0,52.0,30.13,NE,50,5.0,-999.0,73,-99.99,,,-99.99,,2013-06-17 15:12:00,
2013-06-17 09:22:00,60.0,52.0,30.13,NE,50,5.0,-999.0,73,-99.99,,,-99.99,,2013-06-17 15:22:00,
2013-06-17 09:33:00,62.0,50.0,30.12,ENE,59,5.0,-999.0,67,-99.99,,,-99.99,,2013-06-17 15:33:00,
2013-06-17 09:43:00,64.0,51.0,30.13,ENE,71,9.0,-999.0,63,-99.99,,,-99.99,,2013-06-17 15:43:00,
2013-06-17 09:52:00,64.0,51.0,30.12,ESE,119,9.0,-999.0,63,-99.99,,,-99.99,,2013-06-17 15:52:00,
2013-06-17 10:02:00,65.0,50.0,30.13,East,87,9.0,-999.0,59,-99.99,,,-99.99,,2013-06-17 16:02:00,
2013-06-17 10:12:00,65.0,52.0,30.13,ESE,103,9.0,-999.0,61,-99.99,,,-99.99,,2013-06-17 16:12:00,
2013-06-17 10:22:00,65.0,52.0,30.13,ESE,103,9.0,-999.0,61,-99.99,,,-99.99,,2013-06-17 16:22:00,
2013-06-17 10:33:00,66.0,48.0,30.13,East,97,10.0,-999.0,53,-99.99,,,-99.99,,2013-06-17 16:33:00,
2013-06-17 10:43:00,66.0,52.0,30.13,SE,135,5.0,-999.0,61,-99.99,,,-99.99,,2013-06-17 16:43:00,
2013-06-17 10:53:00,66.0,49.0,30.13,East,79,7.0,-999.0,54,-99.99,,,-99.99,,2013-06-17 16:53:00,
2013-06-17 11:02:00,66.0,48.0,30.12,ENE,72,6.0,-999.0,51,-99.99,,,-99.99,,2013-06-17 17:02:00,
2013-06-17 11:12:00,66.0,48.0,30.12,ENE,72,6.0,-999.0,51,-99.99,,,-99.99,,2013-06-17 17:12:00,
2013-06-17 11:22:00,66.0,48.0,30.12,ENE,72,6.0,-999.0,51,-99.99,,,-99.99,,2013-06-17 17:22:00,
2013-06-17 11:33:00,66.0,48.0,30.12,ENE,72,6.0,-999.0,51,-99.99,,,-99.99,,2013-06-17 17:33:00,
2013-06-17 19:11:00,70.0,54.0,30.04,ESE,104,10.0,-999.0,57,-99.99,,,-99.99,,2013-06-18 01:11:00,
2013-06-17 19:23:00,69.0,54.0,30.05,ESE,111,7.0,-999.0,60,-99.99,,,-99.99,,2013-06-18 01:23:00,
2013-06-17 19:34:00,67.0,55.0,30.04,SE,140,9.0,-999.0,64,-99.99,,,-99.99,,2013-06-18 01:34:00,
2013-06-17 19:44:00,67.0,55.0,30.06,SSE,147,5.0,-999.0,66,-99.99,,,-99.99,,2013-06-18 01:44:00,
2013-06-17 19:53:00,67.0,55.0,30.06,SSE,152,4.0,-999.0,67,-99.99,,,-99.99,,2013-06-18 01:53:00,
2013-06-17 20:02:00,66.0,55.0,30.06,SSE,152,4.0,-999.0,68,-99.99,,,-99.99,,2013-06-18 02:02:00,
2013-06-17 20:11:00,67.0,56.0,30.06,SSE,154,4.0,-999.0,67,-99.99,,,-99.99,,2013-06-18 02:11:00,
2013-06-17 20:22:00,67.0,56.0,30.06,SSE,159,5.0,-999.0,68,-99.99,,,-99.99,,2013-06-18 02:22:00,
2013-06-17 20:34:00,66.0,56.0,30.05,South,182,7.0,-999.0,69,-99.99,,,-99.99,,2013-06-18 02:34:00,
2013-06-17 20:43:00,65.0,56.0,30.07,SSW,193,7.0,-999.0,73,-99.99,,,-99.99,,2013-06-18 02:43:00,
2013-06-17 20:53:00,63.0,55.0,30.06,South,190,8.0,-999.0,74,-99.99,,,-99.99,,2013-06-18 02:53:00,
2013-06-17 21:02:00,62.0,54.0,30.07,SSW,198,9.0,-999.0,75,-99.99,,,-99.99,,2013-06-18 03:02:00,
2013-06-17 21:12:00,62.0,54.0,30.07,SSW,197,8.0,-999.0,75,-99.99,,,-99.99,,2013-06-18 03:12:00,
2013-06-17 21:23:00,62.0,54.0,30.08,SSW,202,5.0,-999.0,75,-99.99,,,-99.99,,2013-06-18 03:23:00,
2013-06-17 21:34:00,61.0,53.0,30.09,SSW,203,7.0,-999.0,74,-99.99,,,-99.99,,2013-06-18 03:34:00,
2013-06-17 21:43:00,62.0,54.0,30.07,West,281,0.0,-999.0,76,-99.99,,,-99.99,,2013-06-18 03:43:00,
2013-06-17 21:53:00,62.0,54.0,30.07,ENE,69,1.0,-999.0,75,-99.99,,,-99.99,,2013-06-18 03:53:00,
2013-06-17 22:02:00,62.0,53.0,30.09,East,100,3.0,-999.0,74,-99.99,,,-99.99,,2013-06-18 04:02:00,
2013-06-17 22:12:00,62.0,52.0,30.09,North,0,0.0,-999.0,68,-99.99,,,-99.99,,2013-06-18 04:12:00,
2013-06-17 22:22:00,63.0,50.0,30.09,SW,225,0.0,-999.0,62,-99.99,,,-99.99,,2013-06-18 04:22:00,
2013-06-17 22:34:00,64.0,51.0,30.08,SW,231,2.0,-999.0,62,-99.99,,,-99.99,,2013-06-18 04:34:00,
2013-06-17 22:43:00,64.0,51.0,30.07,North,0,0.0,-999.0,63,-99.99,,,-99.99,,2013-06-18 04:43:00,
2013-06-17 22:53:00,64.0,50.0,30.07,SSW,211,3.0,-999.0,61,-99.99,,,-99.99,,2013-06-18 04:53:00,
2013-06-17 23:02:00,63.0,52.0,30.06,SSW,207,4.0,-999.0,65,-99.99,,,-99.99,,2013-06-18 05:02:00,
2013-06-17 23:12:00,62.0,51.0,30.08,SSW,193,5.0,-999.0,69,-99.99,,,-99.99,,2013-06-18 05:12:00,
2013-06-17 23:22:00,61.0,52.0,30.08,South,184,4.0,-999.0,73,-99.99,,,-99.99,,2013-06-18 05:22:00,
2013-06-17 23:33:00,61.0,52.0,30.07,SSW,192,3.0,-999.0,72,-99.99,,,-99.99,,2013-06-18 05:33:00,
2013-06-17 23:43:00,60.0,52.0,30.07,ENE,62,3.0,-999.0,76,-99.99,,,-99.99,,2013-06-18 05:43:00,
2013-06-17 23:53:00,61.0,52.0,30.08,SE,124,3.0,-999.0,74,-99.99,,,-99.99,,2013-06-18 05:53:00,